Time;durP1;ratioP1;P1;durP2;ratioP2;P2;SDS_P1;SDS_P2;PMS_P1;PMS_P2;Temp;Humidity;BMP_temperature;BMP_pressure;BME280_temperature;BME280_humidity;BME280_pressure;Samples;Min_cycle;Max_cycle;Signal;HPM_P1;HPM_P2
2023/05/25 03:51:16;;;;;;;13.13;7.80;;;;;;;14.89;100.00;100628.91;6570859;26;19986;-83
2023/05/25 03:54:20;;;;;;;13.00;8.00;;;;;;;15.00;100.00;100627.50;6613861;26;33908;-84
2023/05/25 03:57:23;;;;;;;12.40;7.18;;;;;;;15.05;100.00;100629.63;6633464;26;33624;-84
2023/05/25 04:00:26;;;;;;;11.20;7.15;;;;;;;15.12;100.00;100631.34;6613716;26;34402;-84
2023/05/25 04:03:31;;;;;;;12.95;8.27;;;;;;;15.28;100.00;100640.16;6613741;26;33586;-84
2023/05/25 04:06:36;;;;;;;12.73;7.90;;;;;;;15.26;100.00;100643.06;6596477;26;33835;-84
2023/05/25 04:09:39;;;;;;;12.85;8.32;;;;;;;15.33;100.00;100651.25;6596244;26;34358;-88
2023/05/25 04:12:42;;;;;;;11.23;7.57;;;;;;;15.47;100.00;100649.41;6633539;26;33946;-88
2023/05/25 04:15:45;;;;;;;12.43;8.48;;;;;;;15.58;100.00;100644.22;6613399;26;33737;-88
2023/05/25 04:18:48;;;;;;;12.65;8.00;;;;;;;15.75;100.00;100652.03;6595657;26;34338;-84
2023/05/25 04:21:51;;;;;;;12.82;7.37;;;;;;;15.96;100.00;100651.03;6633301;26;34685;-84
2023/05/25 04:24:54;;;;;;;13.20;8.00;;;;;;;16.03;100.00;100652.72;6613389;26;34751;-84
2023/05/25 04:27:57;;;;;;;14.95;8.13;;;;;;;16.32;100.00;100661.50;6595877;26;33485;-84
2023/05/25 04:31:02;;;;;;;10.48;7.65;;;;;;;16.46;100.00;100659.62;6632760;26;34021;-84
2023/05/25 04:34:08;;;;;;;11.88;7.45;;;;;;;16.62;100.00;100655.66;6613836;26;34447;-84
2023/05/25 04:37:13;;;;;;;11.73;7.55;;;;;;;16.63;100.00;100657.31;6633561;26;34580;-84
2023/05/25 04:40:16;;;;;;;13.70;7.95;;;;;;;16.77;100.00;100661.72;6633263;26;34095;-84
2023/05/25 04:43:19;;;;;;;12.45;7.57;;;;;;;16.77;100.00;100654.41;6633295;26;34263;-84
2023/05/25 04:46:22;;;;;;;10.50;6.50;;;;;;;16.83;100.00;100662.78;6613201;26;33768;-84
2023/05/25 04:49:25;;;;;;;10.43;7.05;;;;;;;16.75;100.00;100667.34;6613364;26;33951;-84
2023/05/25 04:52:29;;;;;;;12.77;7.82;;;;;;;16.95;100.00;100661.91;6634002;26;34598;-84
2023/05/25 04:55:31;;;;;;;11.35;7.47;;;;;;;17.19;100.00;100670.41;6633705;26;34112;-84
2023/05/25 04:58:35;;;;;;;12.35;7.72;;;;;;;17.11;100.00;100659.75;6614845;26;33409;-84
2023/05/25 05:01:39;;;;;;;10.55;7.07;;;;;;;17.19;100.00;100664.97;6613853;26;34759;-84
2023/05/25 05:04:43;;;;;;;11.30;7.40;;;;;;;17.30;100.00;100664.31;6596508;26;34809;-84
2023/05/25 05:07:47;;;;;;;10.38;6.85;;;;;;;17.42;100.00;100675.34;6613661;26;33862;-84
2023/05/25 05:10:50;;;;;;;12.52;7.07;;;;;;;17.66;100.00;100668.31;6633437;26;34291;-84
2023/05/25 05:13:53;;;;;;;10.07;7.43;;;;;;;17.70;100.00;100672.31;6633521;26;34610;-84
2023/05/25 05:16:56;;;;;;;9.35;6.97;;;;;;;17.67;100.00;100667.28;6613051;26;34211;-84
2023/05/25 05:20:00;;;;;;;11.07;7.07;;;;;;;17.83;100.00;100668.69;6633410;26;33887;-84
2023/05/25 05:23:03;;;;;;;9.20;6.32;;;;;;;17.89;100.00;100668.66;6633180;26;34121;-84
2023/05/25 05:26:09;;;;;;;17.52;7.18;;;;;;;17.88;100.00;100674.31;6595855;26;33707;-84
2023/05/25 05:29:12;;;;;;;15.15;7.78;;;;;;;17.97;100.00;100672.19;6614253;26;34596;-84
2023/05/25 05:32:15;;;;;;;9.40;6.65;;;;;;;18.06;100.00;100666.25;6596111;26;33776;-84
2023/05/25 05:35:18;;;;;;;11.52;6.93;;;;;;;18.06;100.00;100668.97;6596027;26;34630;-84
2023/05/25 05:38:22;;;;;;;9.75;6.30;;;;;;;18.24;100.00;100668.19;6596738;26;34903;-84
2023/05/25 05:41:26;;;;;;;10.38;6.75;;;;;;;18.46;100.00;100670.56;6614927;26;35182;-84
2023/05/25 05:44:29;;;;;;;9.20;6.97;;;;;;;18.58;100.00;100675.06;6598835;26;34099;-84
2023/05/25 05:47:32;;;;;;;12.68;6.82;;;;;;;18.73;100.00;100671.16;6620492;26;34599;-84
2023/05/25 05:50:38;;;;;;;8.60;6.65;;;;;;;18.87;100.00;100663.72;6633094;26;34665;-84
2023/05/25 05:53:44;;;;;;;10.25;7.62;;;;;;;18.85;100.00;100676.75;6633604;26;34735;-84
2023/05/25 05:56:47;;;;;;;11.05;8.02;;;;;;;18.90;100.00;100690.53;6601101;26;34706;-85
2023/05/25 05:59:50;;;;;;;9.20;6.95;;;;;;;19.01;100.00;100682.44;6637663;26;34275;-85
2023/05/25 06:02:53;;;;;;;10.10;6.95;;;;;;;19.27;100.00;100691.37;6647925;26;35340;-85
2023/05/25 06:05:58;;;;;;;12.23;6.72;;;;;;;19.41;100.00;100694.81;6617070;26;35343;-85
2023/05/25 06:09:02;;;;;;;10.48;7.12;;;;;;;19.54;100.00;100683.72;6654990;26;33790;-84
2023/05/25 06:12:05;;;;;;;10.15;6.90;;;;;;;19.47;100.00;100689.25;6624417;26;35445;-85
2023/05/25 06:15:09;;;;;;;12.65;7.43;;;;;;;19.69;100.00;100695.13;6613388;26;33460;-88
2023/05/25 06:18:12;;;;;;;9.52;7.15;;;;;;;19.90;100.00;100692.94;6613134;26;33856;-90
2023/05/25 06:21:15;;;;;;;10.38;6.95;;;;;;;19.92;100.00;100690.81;6612992;26;34240;-89
2023/05/25 06:24:18;;;;;;;10.80;7.07;;;;;;;20.10;100.00;100688.03;6596204;26;34372;-89
2023/05/25 06:27:22;;;;;;;9.90;6.82;;;;;;;20.10;99.87;100695.41;6596547;26;33606;-86
2023/05/25 06:30:25;;;;;;;9.15;6.75;;;;;;;20.27;98.73;100699.13;6636670;26;33985;-86
2023/05/25 06:33:28;;;;;;;11.75;7.05;;;;;;;20.26;97.41;100689.25;6632908;26;33569;-85
2023/05/25 06:36:31;;;;;;;9.77;6.57;;;;;;;20.30;96.81;100692.34;6613448;26;34739;-85
2023/05/25 06:39:34;;;;;;;8.85;6.68;;;;;;;20.29;98.20;100686.03;6611208;26;33958;-85
2023/05/25 06:42:37;;;;;;;9.57;6.15;;;;;;;20.28;96.77;100689.03;6594843;26;33717;-85
2023/05/25 06:45:57;;;;;;;7.85;6.32;;;;;;;20.32;96.57;100692.94;6617422;26;34028;-85
2023/05/25 06:49:01;;;;;;;8.73;6.10;;;;;;;20.42;95.37;100700.56;6633913;26;34358;-85
2023/05/25 06:52:04;;;;;;;7.78;6.12;;;;;;;20.60;93.27;100692.31;6632889;26;33994;-85
2023/05/25 06:55:10;;;;;;;6.80;5.85;;;;;;;20.52;92.50;100695.34;6594885;26;33664;-85
2023/05/25 06:58:12;;;;;;;7.53;6.00;;;;;;;20.63;90.78;100694.56;6613941;26;33809;-85
2023/05/25 07:01:15;;;;;;;7.15;5.70;;;;;;;20.82;89.71;100700.75;6595659;26;33826;-85
2023/05/25 07:04:18;;;;;;;10.88;5.75;;;;;;;20.94;88.90;100707.09;6633667;26;33659;-84
2023/05/25 07:07:21;;;;;;;8.43;5.47;;;;;;;21.03;86.42;100702.91;6597426;26;33939;-85
2023/05/25 07:10:24;;;;;;;7.85;5.65;;;;;;;21.02;87.83;100703.12;6632850;26;35376;-85
2023/05/25 07:13:27;;;;;;;8.32;5.68;;;;;;;21.14;86.18;100701.22;6601039;26;33790;-85
2023/05/25 07:16:30;;;;;;;7.50;5.72;;;;;;;21.21;86.71;100707.41;6617429;26;33687;-85
2023/05/25 07:19:33;;;;;;;7.65;5.57;;;;;;;21.18;86.32;100713.38;6634318;26;33777;-85
2023/05/25 07:22:36;;;;;;;9.70;5.25;;;;;;;21.18;86.56;100715.28;6598122;26;33757;-85
2023/05/25 07:25:40;;;;;;;8.05;5.60;;;;;;;21.32;85.26;100715.84;6637120;26;34189;-85
2023/05/25 07:28:43;;;;;;;10.27;6.28;;;;;;;21.36;84.67;100701.47;6636442;26;33987;-85
2023/05/25 07:31:46;;;;;;;8.43;6.20;;;;;;;21.21;86.62;100717.53;6596209;26;34459;-85
2023/05/25 07:34:49;;;;;;;7.32;5.10;;;;;;;21.47;86.72;100708.00;6613899;26;33829;-85
2023/05/25 07:37:57;;;;;;;7.15;5.55;;;;;;;21.55;86.47;100704.87;6619872;26;33905;-85
2023/05/25 07:40:59;;;;;;;7.68;5.75;;;;;;;21.23;84.77;100702.50;6595877;26;34267;-85
2023/05/25 07:44:03;;;;;;;7.18;5.65;;;;;;;21.31;85.79;100706.81;6596306;26;33779;-85
2023/05/25 07:47:06;;;;;;;6.50;5.20;;;;;;;21.56;83.92;100708.44;6634038;26;33952;-85
2023/05/25 07:50:09;;;;;;;6.95;5.57;;;;;;;21.80;83.92;100701.00;6613694;26;34065;-85
2023/05/25 07:53:12;;;;;;;6.55;5.22;;;;;;;22.01;81.78;100707.69;6633829;26;33973;-85
2023/05/25 07:56:16;;;;;;;9.10;5.82;;;;;;;22.27;80.36;100698.88;6613885;26;33615;-85
2023/05/25 07:59:18;;;;;;;7.12;4.82;;;;;;;22.00;79.00;100708.78;6611824;26;33588;-85
2023/05/25 08:02:21;;;;;;;8.85;5.57;;;;;;;22.20;79.07;100711.94;6632398;26;33854;-85
2023/05/25 08:05:25;;;;;;;11.20;6.00;;;;;;;22.62;78.19;100711.53;6594740;26;33810;-85
2023/05/25 08:08:27;;;;;;;7.95;5.40;;;;;;;22.56;76.76;100705.13;6634002;26;34311;-85
2023/05/25 08:11:30;;;;;;;9.75;5.55;;;;;;;22.61;77.79;100704.38;6611993;26;35432;-85
2023/05/25 08:14:33;;;;;;;7.93;5.15;;;;;;;22.82;77.13;100700.88;6595049;26;33583;-85
2023/05/25 08:17:36;;;;;;;10.02;6.00;;;;;;;23.11;74.85;100699.94;6596085;26;33693;-85
2023/05/25 08:20:39;;;;;;;9.38;5.18;;;;;;;23.38;73.89;100700.88;6641424;26;34571;-85
2023/05/25 08:23:43;;;;;;;8.10;5.95;;;;;;;23.53;72.44;100706.56;6638268;26;34912;-89
2023/05/25 08:26:46;;;;;;;6.65;5.32;;;;;;;23.52;73.37;100701.34;6595908;26;34593;-89
2023/05/25 08:29:56;;;;;;;7.07;4.93;;;;;;;23.67;74.50;100707.00;6619564;26;33834;-85
2023/05/25 08:32:59;;;;;;;6.65;4.80;;;;;;;23.73;70.82;100711.50;6599326;26;34221;-85
2023/05/25 08:36:03;;;;;;;6.40;5.07;;;;;;;23.16;72.48;100711.00;6595830;26;34469;-86
2023/05/25 08:39:07;;;;;;;8.15;5.18;;;;;;;23.09;71.79;100708.44;6595566;26;34584;-85
2023/05/25 08:42:10;;;;;;;6.85;5.00;;;;;;;23.25;70.58;100710.31;6614306;26;34478;-85
2023/05/25 08:45:13;;;;;;;9.15;4.85;;;;;;;23.18;70.12;100712.41;6613403;26;33982;-85
2023/05/25 08:48:36;;;;;;;6.93;4.93;;;;;;;23.47;71.16;100701.25;6653944;26;35552;-85
2023/05/25 08:51:50;;;;;;;5.78;4.55;;;;;;;23.76;70.11;100707.41;6606941;26;33757;-85
2023/05/25 08:54:56;;;;;;;6.20;5.18;;;;;;;24.19;69.78;100706.50;6614589;26;33940;-85
2023/05/25 08:58:06;;;;;;;6.18;4.75;;;;;;;24.51;67.81;100708.47;6633336;26;33882;-85
2023/05/25 09:01:13;;;;;;;6.10;4.62;;;;;;;24.70;66.69;100711.63;6613364;26;33457;-85
2023/05/25 09:04:18;;;;;;;9.93;5.00;;;;;;;24.86;67.72;100710.66;6632472;26;34601;-85
2023/05/25 09:07:22;;;;;;;5.65;4.97;;;;;;;25.21;64.99;100712.00;6596283;26;34080;-85
2023/05/25 09:10:26;;;;;;;6.47;5.45;;;;;;;24.75;66.46;100708.94;6633084;26;33801;-86
2023/05/25 09:13:29;;;;;;;10.20;5.50;;;;;;;25.13;65.53;100704.22;6613783;26;33995;-85
2023/05/25 09:16:33;;;;;;;9.45;5.62;;;;;;;24.87;68.24;100706.00;6613338;26;34466;-85
2023/05/25 09:19:36;;;;;;;7.00;5.57;;;;;;;24.71;66.26;100709.72;6615858;26;33907;-85
2023/05/25 09:22:40;;;;;;;10.52;5.30;;;;;;;24.81;68.53;100704.28;6633511;26;34655;-85
2023/05/25 09:25:45;;;;;;;11.15;5.57;;;;;;;24.65;67.89;100704.16;6633567;26;34916;-86
2023/05/25 09:28:48;;;;;;;9.35;5.50;;;;;;;24.04;70.01;100700.81;6633768;26;34750;-85
2023/05/25 09:31:51;;;;;;;9.20;5.50;;;;;;;23.83;72.32;100701.72;6613727;26;33962;-85
2023/05/25 09:34:56;;;;;;;8.65;5.55;;;;;;;23.96;71.92;100706.81;6633562;26;33957;-86
2023/05/25 09:37:59;;;;;;;7.55;5.68;;;;;;;24.36;70.84;100706.34;6613448;26;33639;-85
2023/05/25 09:41:03;;;;;;;8.48;6.12;;;;;;;24.41;69.84;100703.66;6595613;26;33865;-86
2023/05/25 09:44:06;;;;;;;8.02;5.90;;;;;;;24.87;70.70;100714.25;6614501;26;33961;-85
2023/05/25 09:47:15;;;;;;;8.02;5.82;;;;;;;24.78;69.03;100713.91;6633433;26;33984;-86
2023/05/25 09:50:18;;;;;;;7.50;5.68;;;;;;;24.56;70.10;100713.19;6632892;26;34112;-85
2023/05/25 09:53:21;;;;;;;6.75;5.35;;;;;;;24.89;68.27;100718.41;6613363;26;34756;-90
2023/05/25 09:56:26;;;;;;;7.40;5.37;;;;;;;24.62;69.58;100721.19;6633165;26;33535;-90
2023/05/25 09:59:29;;;;;;;8.55;6.05;;;;;;;25.15;68.98;100721.31;6633028;26;33854;-90
2023/05/25 10:02:32;;;;;;;8.02;5.80;;;;;;;25.06;69.43;100715.47;6632668;26;35097;-86
2023/05/25 10:05:35;;;;;;;8.07;5.65;;;;;;;25.20;69.65;100721.37;6612958;26;33612;-86
2023/05/25 10:08:38;;;;;;;7.50;5.65;;;;;;;25.61;69.06;100706.94;6595551;26;34782;-86
2023/05/25 10:11:42;;;;;;;7.22;5.43;;;;;;;25.56;66.90;100708.59;6612909;26;33893;-86
2023/05/25 10:14:49;;;;;;;7.60;5.43;;;;;;;25.81;67.04;100709.78;6633426;26;33953;-86
2023/05/25 10:17:56;;;;;;;6.95;5.25;;;;;;;25.59;67.26;100703.62;6632870;26;34494;-86
2023/05/25 10:21:02;;;;;;;7.62;5.82;;;;;;;25.85;67.00;100708.16;6633416;26;33885;-85
2023/05/25 10:24:17;;;;;;;6.97;5.55;;;;;;;26.20;63.94;100704.63;6633147;26;32195;-85
2023/05/25 10:27:23;;;;;;;9.07;5.30;;;;;;;26.21;66.73;100702.72;6633141;26;34718;-85
2023/05/25 10:30:31;;;;;;;5.70;4.60;;;;;;;26.04;65.22;100700.22;6634523;26;33817;-85
2023/05/25 10:33:34;;;;;;;6.95;4.78;;;;;;;26.32;62.13;100689.75;6612435;26;35018;-85
2023/05/25 10:36:37;;;;;;;7.57;4.97;;;;;;;25.76;63.05;100695.97;6595433;26;33856;-85
2023/05/25 10:39:42;;;;;;;5.32;4.65;;;;;;;26.24;61.99;100693.91;6613033;26;34345;-85
2023/05/25 10:42:46;;;;;;;7.80;4.90;;;;;;;26.95;60.86;100686.72;6633885;26;33713;-85
2023/05/25 10:45:48;;;;;;;8.48;5.15;;;;;;;26.91;60.81;100681.75;6633360;26;34810;-85
2023/05/25 10:48:51;;;;;;;5.72;4.60;;;;;;;26.75;61.23;100684.81;6614593;26;33978;-85
2023/05/25 10:51:58;;;;;;;6.25;4.18;;;;;;;26.89;61.01;100691.41;6622804;26;33927;-85
2023/05/25 10:55:03;;;;;;;5.87;4.62;;;;;;;27.32;59.25;100689.09;6649477;26;34215;-85
2023/05/25 10:58:12;;;;;;;5.70;4.18;;;;;;;27.27;58.33;100686.38;6636869;26;34938;-85
2023/05/25 11:01:15;;;;;;;5.43;4.05;;;;;;;27.76;56.01;100686.44;6635329;26;35472;-85
2023/05/25 11:04:18;;;;;;;4.50;3.87;;;;;;;28.36;55.93;100683.53;6621240;26;34118;-86
2023/05/25 11:07:21;;;;;;;4.55;4.12;;;;;;;28.91;53.54;100669.50;6616716;26;33800;-84
2023/05/25 11:10:49;;;;;;;4.93;4.18;;;;;;;29.36;50.41;100670.09;6597730;26;33666;-84
2023/05/25 11:13:52;;;;;;;5.47;4.40;;;;;;;29.88;49.73;100660.00;6634021;26;33588;-84
2023/05/25 11:17:10;;;;;;;8.23;4.30;;;;;;;28.73;49.85;100667.47;6614942;26;33811;-85
2023/05/25 11:20:24;;;;;;;5.80;4.10;;;;;;;27.67;53.18;100667.94;6634459;26;33897;-88
2023/05/25 11:23:28;;;;;;;5.05;3.47;;;;;;;27.26;53.38;100660.66;6613421;26;34690;-84
2023/05/25 11:26:33;;;;;;;5.03;3.90;;;;;;;26.79;52.33;100653.56;6612477;26;34139;-84
2023/05/25 11:29:37;;;;;;;5.40;3.50;;;;;;;26.45;54.35;100658.84;6632154;26;33415;-84
2023/05/25 11:32:49;;;;;;;8.10;3.72;;;;;;;28.55;49.91;100660.69;6631062;26;34626;-85
2023/05/25 11:35:54;;;;;;;3.62;3.30;;;;;;;30.94;43.20;100645.44;6639036;26;34334;-85
2023/05/25 11:39:00;;;;;;;6.18;4.07;;;;;;;31.98;40.92;100653.31;6637587;26;35307;-85
2023/05/25 11:42:11;;;;;;;6.15;4.00;;;;;;;33.00;37.97;100644.31;6618352;26;35448;-85
2023/05/25 11:45:14;;;;;;;5.57;4.18;;;;;;;31.23;40.51;100647.09;6613129;26;34534;-85
2023/05/25 11:48:17;;;;;;;4.20;3.78;;;;;;;30.93;41.99;100645.75;6577246;26;33893;-85
2023/05/25 11:51:23;;;;;;;4.22;3.72;;;;;;;32.47;38.52;100644.00;6613723;26;34694;-85
2023/05/25 11:54:27;;;;;;;5.57;3.80;;;;;;;33.18;37.42;100629.25;6614911;26;33714;-85
2023/05/25 11:57:30;;;;;;;10.98;3.47;;;;;;;33.73;36.04;100627.91;6634196;26;34845;-85
2023/05/25 12:00:33;;;;;;;4.50;4.00;;;;;;;34.08;35.87;100623.16;6633582;26;34728;-85
2023/05/25 12:03:36;;;;;;;4.03;3.42;;;;;;;31.74;38.53;100623.75;6612756;26;34773;-85
2023/05/25 12:06:39;;;;;;;3.97;3.58;;;;;;;32.77;37.24;100621.22;6612509;26;35419;-85
2023/05/25 12:09:42;;;;;;;4.47;3.55;;;;;;;33.12;36.26;100611.03;6633257;26;33652;-85
2023/05/25 12:12:48;;;;;;;3.53;3.22;;;;;;;34.49;34.34;100616.16;6632720;26;33981;-85
2023/05/25 12:15:56;;;;;;;3.43;2.97;;;;;;;35.95;31.34;100609.25;6613392;26;33419;-85
2023/05/25 12:19:00;;;;;;;4.70;3.45;;;;;;;37.82;29.14;100611.53;6636292;26;33473;-84
2023/05/25 12:22:04;;;;;;;3.45;3.15;;;;;;;38.10;27.79;100609.56;6624987;26;33952;-85
2023/05/25 12:25:09;;;;;;;3.95;3.40;;;;;;;38.08;27.44;100602.66;6638537;26;34425;-85
2023/05/25 12:28:14;;;;;;;5.75;3.62;;;;;;;38.58;26.85;100591.97;6619537;26;34197;-85
2023/05/25 12:31:32;;;;;;;4.00;3.58;;;;;;;38.58;26.59;100597.59;6618146;26;34129;-84
2023/05/25 12:34:35;;;;;;;3.20;3.00;;;;;;;39.26;26.16;100593.63;6642710;26;34154;-85
2023/05/25 12:37:38;;;;;;;3.78;3.20;;;;;;;38.52;26.36;100597.06;6619887;26;34741;-85
2023/05/25 12:40:41;;;;;;;3.40;3.03;;;;;;;39.01;25.65;100599.50;6606508;26;34183;-85
2023/05/25 12:43:44;;;;;;;3.17;2.87;;;;;;;39.93;24.47;100599.16;6643961;26;34426;-89
2023/05/25 12:46:49;;;;;;;3.45;2.97;;;;;;;40.91;23.30;100586.47;6622617;26;33825;-89
2023/05/25 12:49:53;;;;;;;3.42;3.12;;;;;;;40.38;24.61;100595.63;6620681;26;34059;-89
2023/05/25 12:53:01;;;;;;;4.65;3.08;;;;;;;38.09;26.52;100602.31;6647766;26;33873;-85
2023/05/25 12:56:04;;;;;;;3.87;2.97;;;;;;;37.08;27.77;100594.81;6642783;26;34140;-85
2023/05/25 12:59:14;;;;;;;4.75;3.17;;;;;;;36.49;28.65;100590.41;6622810;26;34391;-85
2023/05/25 13:02:16;;;;;;;5.00;3.10;;;;;;;34.14;31.87;100588.31;6605913;26;35330;-85
2023/05/25 13:05:22;;;;;;;4.07;3.37;;;;;;;31.54;36.22;100586.06;6603702;26;34280;-84
2023/05/25 13:08:24;;;;;;;3.60;3.30;;;;;;;31.03;37.81;100583.53;6636695;26;34031;-84
2023/05/25 13:11:27;;;;;;;5.22;3.30;;;;;;;32.32;35.60;100577.47;6616388;26;33962;-85
2023/05/25 13:14:30;;;;;;;5.95;3.83;;;;;;;33.73;33.34;100572.06;6614496;26;34130;-85
2023/05/25 13:17:34;;;;;;;3.95;3.17;;;;;;;34.04;32.59;100569.88;6597643;26;33728;-85
2023/05/25 13:20:37;;;;;;;4.28;3.45;;;;;;;35.62;29.94;100565.22;6597419;26;33575;-85
2023/05/25 13:23:40;;;;;;;4.07;3.00;;;;;;;32.92;33.82;100568.59;6595825;26;34589;-85
2023/05/25 13:26:43;;;;;;;3.97;2.80;;;;;;;31.89;35.52;100563.25;6596262;26;34869;-85
2023/05/25 13:29:49;;;;;;;7.60;3.37;;;;;;;34.76;31.38;100553.41;6594864;26;34449;-85
2023/05/25 13:32:51;;;;;;;3.60;3.30;;;;;;;36.18;29.38;100548.06;6607681;26;34134;-85
2023/05/25 13:35:58;;;;;;;3.33;3.03;;;;;;;37.15;28.54;100554.91;6635897;26;33564;-85
2023/05/25 13:39:04;;;;;;;3.85;3.17;;;;;;;37.54;27.92;100555.34;6611516;26;33806;-85
2023/05/25 13:42:07;;;;;;;7.00;3.53;;;;;;;39.18;26.08;100542.78;6633500;26;34377;-85
2023/05/25 13:45:29;;;;;;;3.70;3.35;;;;;;;38.67;26.95;100527.88;6586649;26;34290;-84
2023/05/25 13:48:52;;;;;;;3.25;2.95;;;;;;;39.25;26.40;100522.41;6585865;26;34224;-85
2023/05/25 13:52:15;;;;;;;3.22;2.90;;;;;;;38.69;26.13;100528.34;6573743;27;33901;-85
2023/05/25 13:55:38;;;;;;;3.35;3.05;;;;;;;38.33;25.58;100525.44;6589164;27;34168;-90
2023/05/25 13:58:41;;;;;;;5.07;3.20;;;;;;;36.97;27.94;100510.25;6609349;27;33543;-86
2023/05/25 14:01:45;;;;;;;2.90;2.70;;;;;;;36.70;28.42;100516.59;6606965;27;34807;-86
2023/05/25 14:04:48;;;;;;;3.37;2.90;;;;;;;34.97;30.91;100508.69;6586327;27;34687;-86
2023/05/25 14:07:51;;;;;;;3.20;2.90;;;;;;;33.36;32.86;100510.09;6585510;27;35023;-86
2023/05/25 14:10:56;;;;;;;3.97;3.20;;;;;;;32.12;34.88;100508.37;6604318;27;34607;-86
2023/05/25 14:13:59;;;;;;;3.87;3.10;;;;;;;30.37;37.96;100516.19;6604133;27;33865;-86
2023/05/25 14:17:02;;;;;;;3.97;3.28;;;;;;;29.36;40.82;100515.59;6604540;27;33841;-86
2023/05/25 14:20:05;;;;;;;4.43;3.45;;;;;;;28.11;44.23;100518.50;6604556;27;33844;-86
2023/05/25 14:23:09;;;;;;;5.72;3.53;;;;;;;27.88;45.89;100514.56;6605597;27;34333;-85
2023/05/25 14:26:15;;;;;;;4.93;3.67;;;;;;;28.04;45.16;100510.50;6611147;27;33595;-86
2023/05/25 14:29:18;;;;;;;5.85;3.30;;;;;;;27.95;45.30;100512.25;6607693;26;33895;-85
2023/05/25 14:32:20;;;;;;;5.60;3.40;;;;;;;28.01;44.96;100513.84;6588805;27;34355;-85
2023/05/25 14:35:23;;;;;;;3.62;3.33;;;;;;;28.14;44.62;100503.22;6603838;27;33866;-85
2023/05/25 14:38:26;;;;;;;4.72;3.47;;;;;;;28.13;44.66;100509.88;6601629;27;33421;-85
2023/05/25 14:41:29;;;;;;;3.97;3.58;;;;;;;27.47;46.13;100505.72;6604017;27;34046;-86
2023/05/25 14:44:32;;;;;;;4.55;3.75;;;;;;;27.17;47.11;100509.50;6586412;27;34646;-85
2023/05/25 14:47:35;;;;;;;5.03;3.30;;;;;;;27.21;47.32;100494.81;6598819;27;142766;-85
2023/05/25 14:50:39;;;;;;;4.07;3.45;;;;;;;26.97;48.98;100497.44;6603252;27;34525;-85
2023/05/25 14:53:42;;;;;;;4.00;3.70;;;;;;;27.18;49.03;100491.81;6585484;27;33296;-84
2023/05/25 14:56:45;;;;;;;7.00;3.60;;;;;;;27.23;47.88;100491.75;6603535;27;33712;-85
2023/05/25 14:59:48;;;;;;;4.37;3.85;;;;;;;27.30;49.46;100506.09;6604606;27;34663;-85
2023/05/25 15:02:51;;;;;;;5.32;3.47;;;;;;;27.27;49.02;100506.69;6604563;27;33730;-85
2023/05/25 15:05:55;;;;;;;5.47;4.20;;;;;;;27.08;49.34;100495.41;6602518;27;33889;-85
2023/05/25 15:08:57;;;;;;;6.28;3.85;;;;;;;27.06;49.84;100490.19;6585641;27;33973;-85
2023/05/25 15:12:00;;;;;;;5.60;3.92;;;;;;;27.24;49.70;100485.97;6584910;27;34675;-85
2023/05/25 15:15:03;;;;;;;6.37;3.72;;;;;;;27.24;49.65;100491.50;6604845;27;34442;-85
2023/05/25 15:18:06;;;;;;;3.87;3.30;;;;;;;27.10;51.04;100493.19;6606324;27;33973;-85
2023/05/25 15:21:09;;;;;;;5.50;3.75;;;;;;;26.86;50.86;100488.34;6605658;27;33944;-86
2023/05/25 15:24:15;;;;;;;3.95;3.40;;;;;;;26.62;50.34;100474.37;6606521;27;33702;-84
2023/05/25 15:27:18;;;;;;;4.25;3.67;;;;;;;26.41;50.42;100487.41;6605499;27;34719;-85
2023/05/25 15:30:21;;;;;;;5.00;3.60;;;;;;;26.30;50.97;100491.28;6586665;27;33980;-85
2023/05/25 15:33:24;;;;;;;6.22;4.07;;;;;;;26.04;53.01;100489.69;6586943;27;33520;-85
2023/05/25 15:36:45;;;;;;;6.43;3.47;;;;;;;25.98;53.95;100480.59;6605162;27;34438;-85
2023/05/25 15:39:48;;;;;;;4.87;3.60;;;;;;;25.84;54.23;100482.25;6604224;27;33934;-85
2023/05/25 15:42:51;;;;;;;8.50;3.83;;;;;;;25.79;55.14;100472.00;6604278;27;33683;-85
2023/05/25 15:45:54;;;;;;;4.00;3.60;;;;;;;25.88;54.91;100481.41;6607182;27;34711;-84
2023/05/25 15:48:57;;;;;;;6.53;3.62;;;;;;;25.72;54.91;100482.50;6568981;26;33877;-85
2023/05/25 15:51:59;;;;;;;4.22;3.83;;;;;;;25.69;54.97;100477.56;6604411;27;33880;-85
2023/05/25 15:55:03;;;;;;;4.30;3.55;;;;;;;25.51;55.11;100481.69;6605849;27;34505;-89
2023/05/25 15:58:06;;;;;;;4.55;3.75;;;;;;;25.52;54.92;100480.56;6586490;27;33814;-90
